createdAt,value
2023-03-12T00:02:27.515Z,98394.72
2023-03-12T00:04:56.177Z,98383.16
2023-03-12T00:07:24.143Z,98382.00
2023-03-12T00:09:54.647Z,98371.97
2023-03-12T00:12:25.107Z,98377.31
2023-03-12T00:14:53.461Z,98380.56
2023-03-12T00:17:21.427Z,98376.69
2023-03-12T00:19:53.371Z,98368.75
2023-03-12T00:22:23.219Z,98363.72
2023-03-12T00:24:56.628Z,98357.69
2023-03-12T00:27:33.577Z,98346.63
2023-03-12T00:30:01.729Z,98352.00
2023-03-12T00:32:30.030Z,98354.16
2023-03-12T00:34:58.297Z,98339.25
2023-03-12T00:37:26.517Z,98328.72
2023-03-12T00:39:54.801Z,98335.44
2023-03-12T00:42:23.022Z,98323.34
2023-03-12T00:44:51.020Z,98329.69
2023-03-12T00:47:19.193Z,98328.03
2023-03-12T00:49:47.240Z,98314.28
2023-03-12T00:52:15.319Z,98314.94
2023-03-12T00:54:43.359Z,98311.41
2023-03-12T00:57:11.590Z,98312.22
2023-03-12T00:59:40.636Z,98306.69
2023-03-12T01:02:09.112Z,98305.69
2023-03-12T01:04:37.870Z,98301.81
2023-03-12T01:07:06.143Z,98300.47
2023-03-12T01:09:34.632Z,98281.34
2023-03-12T01:12:03.284Z,98293.09
2023-03-12T01:14:34.616Z,98285.34
2023-03-12T01:17:03.004Z,98281.66
2023-03-12T01:19:31.107Z,98286.38
2023-03-12T01:21:59.290Z,98280.31
2023-03-12T01:24:27.524Z,98287.88
2023-03-12T01:26:58.255Z,98281.34
2023-03-12T01:29:30.537Z,98284.19
2023-03-12T01:31:59.006Z,98274.78
2023-03-12T01:34:27.146Z,98284.84
2023-03-12T01:36:55.696Z,98279.78
2023-03-12T01:39:23.582Z,98284.69
2023-03-12T01:41:51.739Z,98286.19
2023-03-12T01:44:20.086Z,98285.03
2023-03-12T01:46:48.217Z,98278.63
2023-03-12T01:49:33.993Z,98278.81
2023-03-12T01:52:08.462Z,98273.78
2023-03-12T01:54:49.651Z,98272.63
2023-03-12T01:57:24.724Z,98270.59
2023-03-12T01:59:56.620Z,98267.72
2023-03-12T02:02:28.907Z,98264.88
2023-03-12T02:05:17.855Z,98260.00
2023-03-12T02:07:46.872Z,98261.19
2023-03-12T02:10:16.179Z,98258.50
2023-03-12T02:12:45.386Z,98257.34
2023-03-12T02:15:13.509Z,98249.81
2023-03-12T02:17:41.705Z,98248.28
2023-03-12T02:20:22.578Z,98245.25
2023-03-12T02:22:56.452Z,98238.75
2023-03-12T02:25:32.080Z,98231.31
2023-03-12T02:28:01.274Z,98237.00
2023-03-12T02:30:31.790Z,98239.53
2023-03-12T02:33:22.953Z,98241.03
2023-03-12T02:35:52.864Z,98250.81
2023-03-12T02:38:41.307Z,98239.53
2023-03-12T02:41:24.799Z,98240.69
2023-03-12T02:44:07.041Z,98248.44
2023-03-12T02:46:42.483Z,98247.41
2023-03-12T02:49:15.838Z,98251.94
2023-03-12T02:51:45.405Z,98249.25
2023-03-12T02:54:14.898Z,98245.75
2023-03-12T02:56:46.659Z,98249.09
2023-03-12T02:59:15.747Z,98249.09
2023-03-12T03:01:44.673Z,98245.72
2023-03-12T03:04:14.142Z,98244.38
2023-03-12T03:06:43.531Z,98231.13
2023-03-12T03:09:11.635Z,98244.38
2023-03-12T03:11:40.218Z,98240.03
2023-03-12T03:14:08.679Z,98241.38
2023-03-12T03:16:37.520Z,98248.59
2023-03-12T03:19:08.077Z,98251.09
2023-03-12T03:21:36.264Z,98247.91
2023-03-12T03:24:08.227Z,98249.94
2023-03-12T03:26:36.808Z,98240.22
2023-03-12T03:29:05.166Z,98244.25
2023-03-12T03:31:33.611Z,98235.50
2023-03-12T03:34:01.541Z,98237.34
2023-03-12T03:36:30.251Z,98233.00
2023-03-12T03:38:58.895Z,98234.66
2023-03-12T03:41:35.800Z,98230.97
2023-03-12T03:44:05.546Z,98231.81
2023-03-12T03:46:36.058Z,98233.66
2023-03-12T03:49:04.336Z,98237.66
2023-03-12T03:51:32.402Z,98237.66
2023-03-12T03:54:02.511Z,98233.13
2023-03-12T03:56:30.760Z,98237.84
2023-03-12T03:58:59.122Z,98239.34
2023-03-12T04:01:27.198Z,98244.88
2023-03-12T04:03:55.123Z,98237.84
2023-03-12T04:06:23.542Z,98243.72
2023-03-12T04:08:52.531Z,98242.22
2023-03-12T04:11:22.350Z,98244.56
2023-03-12T04:13:52.244Z,98252.94
2023-03-12T04:16:21.700Z,98256.78
2023-03-12T04:18:50.281Z,98246.06
2023-03-12T04:21:18.376Z,98262.53
2023-03-12T04:23:48.696Z,98261.34
2023-03-12T04:26:17.981Z,98269.72
2023-03-12T04:28:46.612Z,98273.75
2023-03-12T04:31:15.003Z,98277.78
2023-03-12T04:33:43.535Z,98274.59
2023-03-12T04:36:13.823Z,98276.31
2023-03-12T04:38:44.711Z,98285.56
2023-03-12T04:41:15.653Z,98287.22
2023-03-12T04:43:46.423Z,98282.19
2023-03-12T04:46:16.305Z,98300.31
2023-03-12T04:48:47.273Z,98311.41
2023-03-12T04:51:18.396Z,98311.91
2023-03-12T04:53:46.954Z,98322.34
2023-03-12T04:56:15.464Z,98336.28
2023-03-12T04:58:43.644Z,98341.97
2023-03-12T05:01:26.740Z,98358.91
2023-03-12T05:03:55.458Z,98378.22
2023-03-12T05:06:25.676Z,98396.19
2023-03-12T05:08:56.243Z,98409.38
2023-03-12T05:11:25.644Z,98410.09
2023-03-12T05:13:54.185Z,98420.47
2023-03-12T05:16:22.402Z,98425.47
2023-03-12T05:18:54.763Z,98432.34
2023-03-12T05:21:23.320Z,98425.81
2023-03-12T05:23:51.397Z,98398.59
2023-03-12T05:26:21.799Z,98401.78
2023-03-12T05:28:50.573Z,98443.91
2023-03-12T05:31:19.344Z,98472.44
2023-03-12T05:33:52.663Z,98497.59
2023-03-12T05:36:21.965Z,98512.88
2023-03-12T05:38:53.069Z,98527.00
2023-03-12T05:41:25.105Z,98542.81
2023-03-12T05:43:57.148Z,98551.25
2023-03-12T05:46:26.447Z,98551.69
2023-03-12T05:48:54.726Z,98550.03
2023-03-12T05:51:22.916Z,98569.38
2023-03-12T05:53:51.168Z,98585.19
2023-03-12T05:56:19.423Z,98590.63
2023-03-12T05:58:49.880Z,98608.88
2023-03-12T06:01:24.614Z,98618.25
2023-03-12T06:03:52.772Z,98627.56
2023-03-12T06:06:21.286Z,98627.97
2023-03-12T06:08:51.784Z,98632.25
2023-03-12T06:11:20.275Z,98653.63
2023-03-12T06:13:48.662Z,98654.34
2023-03-12T06:16:21.463Z,98657.00
2023-03-12T06:18:55.544Z,98668.72
2023-03-12T06:21:26.558Z,98685.44
2023-03-12T06:23:55.640Z,98686.25
2023-03-12T06:26:24.515Z,98679.19
2023-03-12T06:28:53.952Z,98677.88
2023-03-12T06:31:23.625Z,98688.41
2023-03-12T06:33:54.245Z,98683.59
2023-03-12T06:36:24.612Z,98689.19
2023-03-12T06:38:56.597Z,98698.84
2023-03-12T06:41:25.127Z,98704.94
2023-03-12T06:43:53.796Z,98705.53
2023-03-12T06:46:26.821Z,98718.63
2023-03-12T06:48:57.946Z,98724.81
2023-03-12T06:51:26.490Z,98726.09
2023-03-12T06:54:02.601Z,98723.47
2023-03-12T06:56:32.164Z,98725.38
2023-03-12T06:59:00.993Z,98751.09
2023-03-12T07:01:29.650Z,98769.47
2023-03-12T07:03:57.817Z,98760.06
2023-03-12T07:06:26.214Z,98765.88
2023-03-12T07:08:58.169Z,98796.06
2023-03-12T07:11:27.761Z,98793.94
2023-03-12T07:13:55.856Z,98803.88
2023-03-12T07:16:30.613Z,98799.75
2023-03-12T07:18:59.379Z,98828.19
2023-03-12T07:21:27.892Z,98831.44
2023-03-12T07:23:56.380Z,98844.91
2023-03-12T07:26:25.261Z,98842.56
2023-03-12T07:28:53.520Z,98863.53
2023-03-12T07:31:22.455Z,98871.78
2023-03-12T07:33:51.837Z,98875.84
2023-03-12T07:36:21.845Z,98885.44
2023-03-12T07:38:52.227Z,98889.94
2023-03-12T07:41:20.777Z,98903.84
2023-03-12T07:43:49.505Z,98913.63
2023-03-12T07:46:18.389Z,98924.69
2023-03-12T07:48:48.817Z,98949.31
2023-03-12T07:51:17.372Z,98946.25
2023-03-12T07:53:47.778Z,98944.94
2023-03-12T07:56:15.955Z,98957.91
2023-03-12T07:58:48.244Z,98964.84
2023-03-12T08:01:19.152Z,98968.63
2023-03-12T08:03:48.705Z,98979.13
2023-03-12T08:06:17.242Z,98974.75
2023-03-12T08:08:45.512Z,98979.75
2023-03-12T08:11:13.651Z,98999.34
2023-03-12T08:13:41.885Z,98989.19
2023-03-12T08:16:16.403Z,99008.38
2023-03-12T08:18:45.351Z,99014.34
2023-03-12T08:21:16.425Z,99015.06
2023-03-12T08:23:44.480Z,99011.63
2023-03-12T08:26:15.714Z,99037.31
2023-03-12T08:28:43.897Z,99038.31
2023-03-12T08:31:12.331Z,99038.44
2023-03-12T08:33:43.828Z,99045.72
2023-03-12T08:36:14.925Z,99047.72
2023-03-12T08:38:43.916Z,99041.00
2023-03-12T08:41:13.774Z,99059.75
2023-03-12T08:43:41.639Z,99059.75
2023-03-12T08:46:12.208Z,99056.75
2023-03-12T08:48:43.797Z,99067.63
2023-03-12T08:51:11.786Z,99070.50
2023-03-12T08:53:40.438Z,99084.06
2023-03-12T08:56:12.082Z,99098.41
2023-03-12T08:58:40.588Z,99088.41
2023-03-12T09:01:10.389Z,99095.22
2023-03-12T09:03:41.787Z,99100.78
2023-03-12T09:06:13.787Z,99117.72
2023-03-12T09:08:51.955Z,99111.78
2023-03-12T09:11:20.101Z,99111.22
2023-03-12T09:14:18.682Z,99121.28
2023-03-12T09:16:37.003Z,99131.50
2023-03-12T09:19:05.430Z,99134.38
2023-03-12T09:21:36.131Z,99140.03
2023-03-12T09:24:04.415Z,99152.16
2023-03-12T09:26:32.771Z,99150.56
2023-03-12T09:29:03.875Z,99170.41
2023-03-12T09:31:32.567Z,99180.44
2023-03-12T09:34:08.180Z,99188.13
2023-03-12T09:36:38.498Z,99196.84
2023-03-12T09:39:06.889Z,99204.81
2023-03-12T09:41:39.447Z,99207.06
2023-03-12T09:44:37.401Z,99223.47
2023-03-12T09:47:34.390Z,99216.19
2023-03-12T09:50:07.846Z,99218.03
2023-03-12T09:52:41.097Z,99225.00
2023-03-12T09:55:17.867Z,99239.00
2023-03-12T09:57:59.620Z,99243.41
2023-03-12T10:00:34.266Z,99252.88
2023-03-12T10:03:14.565Z,99263.34
2023-03-12T10:06:05.444Z,99264.97
2023-03-12T10:08:52.190Z,99274.50
2023-03-12T10:11:40.871Z,99282.13
2023-03-12T10:14:35.875Z,99295.28
2023-03-12T10:17:18.497Z,99283.88
2023-03-12T10:20:24.141Z,99295.66
2023-03-12T10:23:19.971Z,99288.03
2023-03-12T10:25:59.838Z,99297.34
2023-03-12T10:28:49.953Z,99312.22
2023-03-12T10:31:27.170Z,99316.00
2023-03-12T10:33:59.878Z,99314.13
2023-03-12T10:36:41.612Z,99330.38
2023-03-12T10:39:18.495Z,99335.84
2023-03-12T10:41:48.660Z,99339.72
2023-03-12T10:44:23.375Z,99346.97
2023-03-12T10:47:06.096Z,99342.53
2023-03-12T10:49:37.428Z,99346.72
2023-03-12T10:52:22.218Z,99347.13
2023-03-12T10:54:57.977Z,99360.16
2023-03-12T10:57:40.191Z,99356.00
2023-03-12T11:00:12.740Z,99360.53
2023-03-12T11:02:48.727Z,99366.31
2023-03-12T11:05:29.772Z,99366.69
2023-03-12T11:08:00.726Z,99375.13
2023-03-12T11:10:48.987Z,99377.09
2023-03-12T11:13:41.385Z,99380.34
2023-03-12T11:16:17.434Z,99379.78
2023-03-12T11:19:04.254Z,99380.44
2023-03-12T11:21:37.350Z,99389.25
2023-03-12T11:24:12.367Z,99398.91
2023-03-12T11:26:46.622Z,99402.34
2023-03-12T11:29:33.654Z,99409.97
2023-03-12T11:32:15.202Z,99416.28
2023-03-12T11:34:48.157Z,99420.69
2023-03-12T11:37:40.370Z,99417.91
2023-03-12T11:40:29.060Z,99435.16
2023-03-12T11:43:36.234Z,99440.31
2023-03-12T11:46:37.824Z,99446.50
2023-03-12T11:49:35.098Z,99455.84
2023-03-12T11:52:07.134Z,99452.22
2023-03-12T11:54:58.498Z,99462.16
2023-03-12T11:57:38.790Z,99449.41
2023-03-12T12:00:18.443Z,99463.63
2023-03-12T12:03:19.828Z,99463.25
2023-03-12T12:06:04.284Z,99470.91
2023-03-12T12:08:57.115Z,99473.19
2023-03-12T12:11:52.676Z,99490.78
2023-03-12T12:14:48.622Z,99504.47
2023-03-12T12:17:28.622Z,99511.53
2023-03-12T12:20:18.937Z,99519.06
2023-03-12T12:23:00.667Z,99524.19
2023-03-12T12:25:32.547Z,99531.94
2023-03-12T12:28:27.744Z,99546.09
2023-03-12T12:31:00.701Z,99568.63
2023-03-12T12:33:41.877Z,99563.03
2023-03-12T12:36:11.354Z,99589.59
2023-03-12T12:38:47.741Z,99597.38
2023-03-12T12:41:25.941Z,99600.34
2023-03-12T12:44:02.190Z,99602.91
2023-03-12T12:46:33.246Z,99608.16
2023-03-12T12:49:32.098Z,99620.38
2023-03-12T12:52:04.411Z,99632.03
2023-03-12T12:55:00.353Z,99635.34
2023-03-12T12:57:39.366Z,99652.97
2023-03-12T13:00:45.008Z,99672.34
2023-03-12T13:03:17.721Z,99674.81
2023-03-12T13:06:07.956Z,99687.19
2023-03-12T13:08:45.091Z,99684.81
2023-03-12T13:11:20.422Z,99694.97
2023-03-12T13:14:03.976Z,99693.69
2023-03-12T13:16:40.550Z,99695.53
2023-03-12T13:19:16.337Z,99702.97
2023-03-12T13:22:08.196Z,99713.00
2023-03-12T13:25:17.789Z,99727.41
2023-03-12T13:27:46.481Z,99723.03
2023-03-12T13:30:33.488Z,99722.63
2023-03-12T13:33:04.541Z,99745.47
2023-03-12T13:35:40.090Z,99729.94
2023-03-12T13:38:13.237Z,99744.03
2023-03-12T13:40:56.485Z,99747.91
2023-03-12T13:43:36.625Z,99759.00
2023-03-12T13:46:34.581Z,99769.69
2023-03-12T13:49:06.635Z,99775.94
2023-03-12T13:51:48.173Z,99768.19
2023-03-12T13:54:19.195Z,99769.72
2023-03-12T13:57:28.585Z,99771.81
2023-03-12T13:59:57.524Z,99779.38
2023-03-12T14:02:31.896Z,99784.47
2023-03-12T14:05:06.602Z,99786.28
2023-03-12T14:08:05.791Z,99787.31
2023-03-12T14:10:44.283Z,99794.72
2023-03-12T14:13:26.230Z,99789.09
2023-03-12T14:16:17.989Z,99795.50
2023-03-12T14:18:49.036Z,99791.50
2023-03-12T14:21:18.301Z,99803.31
2023-03-12T14:23:57.508Z,99814.66
2023-03-12T14:26:32.492Z,99814.94
2023-03-12T14:29:26.788Z,99825.78
2023-03-12T14:31:58.642Z,99824.72
2023-03-12T14:34:29.687Z,99834.53
2023-03-12T14:37:10.051Z,99835.00
2023-03-12T14:39:50.927Z,99837.78
2023-03-12T14:42:26.424Z,99841.97
2023-03-12T14:45:03.614Z,99855.00
2023-03-12T14:47:41.467Z,99860.97
2023-03-12T14:50:21.615Z,99864.03
2023-03-12T14:52:49.551Z,99878.00
2023-03-12T14:55:23.200Z,99887.63
2023-03-12T14:58:16.494Z,99889.97
2023-03-12T15:00:46.428Z,99900.50
2023-03-12T15:03:17.111Z,99900.78
2023-03-12T15:05:49.293Z,99914.38
2023-03-12T15:08:17.830Z,99911.72
2023-03-12T15:10:50.959Z,99914.03
2023-03-12T15:13:20.201Z,99932.47
2023-03-12T15:15:51.435Z,99938.00
2023-03-12T15:18:29.758Z,99947.72
2023-03-12T15:20:59.712Z,99946.78
2023-03-12T15:23:30.759Z,99954.88
2023-03-12T15:26:14.252Z,99962.16
2023-03-12T15:28:43.515Z,99972.06
2023-03-12T15:31:15.847Z,99971.28
2023-03-12T15:33:45.756Z,99982.50
2023-03-12T15:36:19.569Z,99997.63
2023-03-12T15:38:57.652Z,99995.75
2023-03-12T15:41:43.286Z,100005.59
2023-03-12T15:44:26.746Z,100011.34
2023-03-12T15:47:04.589Z,100022.47
2023-03-12T15:49:35.486Z,100019.69
2023-03-12T15:52:18.519Z,100026.41
2023-03-12T15:55:03.075Z,100035.56
2023-03-12T15:57:34.356Z,100038.78
2023-03-12T16:00:29.364Z,100056.34
2023-03-12T16:03:08.777Z,100068.56
2023-03-12T16:05:38.480Z,100072.81
2023-03-12T16:08:32.572Z,100076.25
2023-03-12T16:11:00.621Z,100090.09
2023-03-12T16:13:31.545Z,100094.84
2023-03-12T16:16:00.258Z,100098.13
2023-03-12T16:18:30.016Z,100111.88
2023-03-12T16:20:59.956Z,100114.13
2023-03-12T16:23:28.066Z,100113.50
2023-03-12T16:25:59.086Z,100122.56
2023-03-12T16:28:27.509Z,100130.88
2023-03-12T16:30:56.202Z,100133.63
2023-03-12T16:33:25.281Z,100138.84
2023-03-12T16:35:55.920Z,100141.72
2023-03-12T16:38:25.425Z,100143.97
2023-03-12T16:40:55.754Z,100154.72
2023-03-12T16:43:25.700Z,100156.66
2023-03-12T16:45:54.470Z,100161.25
2023-03-12T16:48:24.665Z,100168.44
2023-03-12T16:50:55.778Z,100172.16
2023-03-12T16:53:26.023Z,100176.94
2023-03-12T16:56:04.160Z,100181.44
2023-03-12T16:58:38.500Z,100184.28
2023-03-12T17:01:13.806Z,100192.28
2023-03-12T17:03:44.252Z,100196.00
2023-03-12T17:06:20.497Z,100206.78
2023-03-12T17:08:49.314Z,100201.38
2023-03-12T17:11:20.265Z,100205.84
2023-03-12T17:13:54.057Z,100213.19
2023-03-12T17:16:22.746Z,100215.97
2023-03-12T17:18:59.434Z,100217.84
2023-03-12T17:21:28.488Z,100230.03
2023-03-12T17:23:56.805Z,100238.72
2023-03-12T17:26:25.133Z,100237.25
2023-03-12T17:28:53.854Z,100246.41
2023-03-12T17:31:27.318Z,100252.09
2023-03-12T17:33:58.333Z,100253.16
2023-03-12T17:36:28.649Z,100255.28
2023-03-12T17:38:58.099Z,100259.63
2023-03-12T17:41:27.426Z,100262.50
2023-03-12T17:44:01.899Z,100264.38
2023-03-12T17:46:31.532Z,100281.47
2023-03-12T17:49:02.926Z,100286.03
2023-03-12T17:51:32.311Z,100281.56
2023-03-12T17:54:00.536Z,100286.78
2023-03-12T17:56:28.695Z,100293.25
2023-03-12T17:58:56.673Z,100296.97
2023-03-12T18:01:24.938Z,100302.34
2023-03-12T18:03:53.443Z,100293.66
2023-03-12T18:06:25.629Z,100296.44
2023-03-12T18:08:55.509Z,100300.84
2023-03-12T18:11:26.325Z,100301.75
2023-03-12T18:13:54.992Z,100309.75
2023-03-12T18:16:24.686Z,100308.88
2023-03-12T18:18:53.134Z,100312.16
2023-03-12T18:21:22.419Z,100311.41
2023-03-12T18:23:51.452Z,100320.09
2023-03-12T18:26:22.062Z,100321.41
2023-03-12T18:28:50.674Z,100324.13
2023-03-12T18:31:19.324Z,100328.75
2023-03-12T18:33:52.013Z,100331.50
2023-03-12T18:36:20.561Z,100323.56
2023-03-12T18:38:56.291Z,100332.63
2023-03-12T18:41:30.549Z,100336.16
2023-03-12T18:43:59.355Z,100343.22
2023-03-12T18:46:28.598Z,100350.25
2023-03-12T18:49:09.292Z,100358.41
2023-03-12T18:51:39.630Z,100361.16
2023-03-12T18:54:08.010Z,100362.94
2023-03-12T18:56:39.598Z,100361.22
2023-03-12T18:59:10.289Z,100363.00
2023-03-12T19:01:38.663Z,100372.59
2023-03-12T19:04:07.970Z,100380.63
2023-03-12T19:06:49.792Z,100377.28
2023-03-12T19:09:19.984Z,100378.25
2023-03-12T19:11:49.379Z,100385.53
2023-03-12T19:14:20.274Z,100385.63
2023-03-12T19:16:56.231Z,100395.53
2023-03-12T19:19:25.226Z,100401.19
2023-03-12T19:21:53.467Z,100411.03
2023-03-12T19:24:22.292Z,100409.25
2023-03-12T19:26:51.001Z,100422.25
2023-03-12T19:29:19.076Z,100400.09
2023-03-12T19:31:47.853Z,100413.69
2023-03-12T19:34:22.602Z,100414.53
2023-03-12T19:36:52.514Z,100411.72
2023-03-12T19:39:21.807Z,100408.56
2023-03-12T19:41:51.347Z,100411.31
2023-03-12T19:44:19.774Z,100420.13
2023-03-12T19:46:51.989Z,100423.84
2023-03-12T19:49:20.682Z,100418.66
2023-03-12T19:51:49.767Z,100417.97
2023-03-12T19:54:18.082Z,100434.81
2023-03-12T19:56:46.169Z,100426.88
2023-03-12T19:59:14.657Z,100421.69
2023-03-12T20:01:44.167Z,100431.56
2023-03-12T20:04:14.645Z,100441.25
2023-03-12T20:06:43.242Z,100434.28
2023-03-12T20:09:11.840Z,100449.03
2023-03-12T20:11:40.390Z,100449.19
2023-03-12T20:14:11.798Z,100446.66
2023-03-12T20:16:42.236Z,100450.09
2023-03-12T20:19:10.646Z,100459.03
2023-03-12T20:21:40.511Z,100458.09
2023-03-12T20:24:08.838Z,100455.63
2023-03-12T20:26:41.975Z,100459.47
2023-03-12T20:29:10.053Z,100468.44
2023-03-12T20:31:43.105Z,100463.13
2023-03-12T20:34:11.144Z,100464.06
2023-03-12T20:36:40.176Z,100461.41
2023-03-12T20:39:32.872Z,100461.41
2023-03-12T20:42:01.175Z,100467.44
2023-03-12T20:44:29.550Z,100471.00
2023-03-12T20:46:58.037Z,100471.16
2023-03-12T20:49:26.236Z,100481.81
2023-03-12T20:51:55.503Z,100488.00
2023-03-12T20:54:24.153Z,100482.09
2023-03-12T20:56:55.428Z,100480.97
2023-03-12T20:59:24.122Z,100487.19
2023-03-12T21:01:56.463Z,100484.69
2023-03-12T21:04:24.813Z,100496.22
2023-03-12T21:06:59.778Z,100493.59
2023-03-12T21:09:29.025Z,100489.31
2023-03-12T21:11:57.551Z,100500.72
2023-03-12T21:14:26.142Z,100497.97
2023-03-12T21:16:55.562Z,100500.72
2023-03-12T21:19:31.619Z,100499.81
2023-03-12T21:22:03.363Z,100507.84
2023-03-12T21:24:33.466Z,100517.41
2023-03-12T21:27:02.772Z,100510.69
2023-03-12T21:29:31.093Z,100517.75
2023-03-12T21:31:59.394Z,100524.78
2023-03-12T21:34:29.811Z,100532.53
2023-03-12T21:37:01.174Z,100536.94
2023-03-12T21:39:29.430Z,100535.31
2023-03-12T21:41:58.142Z,100538.78
2023-03-12T21:44:28.031Z,100543.13
2023-03-12T21:46:56.633Z,100547.53
2023-03-12T21:49:25.039Z,100547.66
2023-03-12T21:51:54.158Z,100556.34
2023-03-12T21:54:22.514Z,100565.22
2023-03-12T21:56:54.819Z,100565.13
2023-03-12T21:59:23.375Z,100564.28
2023-03-12T22:01:51.819Z,100565.06
2023-03-12T22:04:22.423Z,100566.19
2023-03-12T22:06:51.170Z,100567.16
2023-03-12T22:09:20.662Z,100567.94
2023-03-12T22:11:51.597Z,100578.84
2023-03-12T22:14:19.916Z,100579.00
2023-03-12T22:16:48.748Z,100582.50
2023-03-12T22:19:24.532Z,100588.56
2023-03-12T22:21:52.845Z,100596.34
2023-03-12T22:24:22.763Z,100602.41
2023-03-12T22:26:51.477Z,100599.75
2023-03-12T22:29:20.612Z,100609.28
2023-03-12T22:31:49.357Z,100605.69
2023-03-12T22:34:18.510Z,100609.09
2023-03-12T22:36:46.909Z,100616.97
2023-03-12T22:39:17.146Z,100623.81
2023-03-12T22:42:01.407Z,100623.81
2023-03-12T22:44:29.934Z,100621.00
2023-03-12T22:46:58.262Z,100634.25
2023-03-12T22:49:26.757Z,100632.50
2023-03-12T22:52:02.034Z,100641.31
2023-03-12T22:54:30.888Z,100636.88
2023-03-12T22:56:59.164Z,100643.09
2023-03-12T22:59:27.655Z,100640.47
2023-03-12T23:01:56.793Z,100646.69
2023-03-12T23:04:25.818Z,100655.72
2023-03-12T23:07:04.425Z,100663.59
2023-03-12T23:09:40.118Z,100671.53
2023-03-12T23:12:09.324Z,100674.94
2023-03-12T23:14:38.539Z,100680.16
2023-03-12T23:17:07.009Z,100684.63
2023-03-12T23:19:35.508Z,100686.34
2023-03-12T23:22:05.244Z,100689.81
2023-03-12T23:24:39.507Z,100687.94
2023-03-12T23:27:08.016Z,100697.59
2023-03-12T23:29:36.365Z,100694.00
2023-03-12T23:32:05.141Z,100702.56
2023-03-12T23:34:34.693Z,100711.38
2023-03-12T23:37:06.509Z,100709.50
2023-03-12T23:39:51.793Z,100704.31
2023-03-12T23:42:30.963Z,100710.59
2023-03-12T23:44:59.746Z,100718.56
2023-03-12T23:47:30.397Z,100721.28
2023-03-12T23:50:00.223Z,100720.66
2023-03-12T23:52:28.625Z,100723.28
2023-03-12T23:54:57.304Z,100724.94
2023-03-12T23:57:26.029Z,100721.38
2023-03-12T23:59:54.404Z,100729.31
